createdAt,value
2018-12-12T00:00:31.396Z,30.60
2018-12-12T00:02:59.447Z,33.65
2018-12-12T00:05:27.495Z,38.05
2018-12-12T00:07:55.526Z,36.23
2018-12-12T00:10:23.581Z,39.25
2018-12-12T00:12:51.646Z,36.83
2018-12-12T00:15:19.896Z,35.75
2018-12-12T00:17:48.716Z,35.08
2018-12-12T00:20:16.765Z,34.75
2018-12-12T00:22:44.806Z,34.08
2018-12-12T00:25:12.871Z,41.73
2018-12-12T00:27:40.908Z,36.38
2018-12-12T00:30:09.055Z,42.53
2018-12-12T00:32:37.133Z,33.90
2018-12-12T00:35:05.303Z,41.25
2018-12-12T00:37:33.443Z,35.00
2018-12-12T00:40:01.494Z,33.38
2018-12-12T00:42:29.521Z,36.83
2018-12-12T00:44:57.557Z,37.98
2018-12-12T00:47:25.580Z,36.20
2018-12-12T00:49:53.609Z,39.48
2018-12-12T00:52:21.651Z,39.30
2018-12-12T00:54:49.897Z,37.23
2018-12-12T00:57:18.351Z,39.58
2018-12-12T00:59:46.378Z,36.40
2018-12-12T01:02:14.469Z,39.27
2018-12-12T01:04:42.502Z,42.40
2018-12-12T01:07:10.545Z,41.48
2018-12-12T01:09:38.583Z,35.63
2018-12-12T01:12:10.932Z,39.98
2018-12-12T01:14:38.957Z,37.38
2018-12-12T01:17:06.999Z,34.85
2018-12-12T01:19:35.076Z,37.03
2018-12-12T01:22:03.209Z,33.88
2018-12-12T01:24:31.247Z,35.28
2018-12-12T01:26:59.285Z,39.48
2018-12-12T01:29:27.317Z,46.48
2018-12-12T01:31:55.351Z,37.55
2018-12-12T01:34:23.381Z,44.40
2018-12-12T01:36:52.141Z,43.05
2018-12-12T01:39:20.141Z,44.55
2018-12-12T01:41:48.169Z,40.25
2018-12-12T01:44:16.229Z,47.25
2018-12-12T01:46:44.245Z,37.67
2018-12-12T01:49:12.373Z,32.17
2018-12-12T01:51:40.405Z,36.15
2018-12-12T01:54:08.465Z,31.30
2018-12-12T01:56:36.562Z,29.27
2018-12-12T01:59:04.585Z,31.87
2018-12-12T02:01:32.621Z,37.25
2018-12-12T02:04:00.658Z,34.05
2018-12-12T02:06:28.709Z,35.60
2018-12-12T02:08:56.759Z,35.85
2018-12-12T02:11:24.803Z,34.35
2018-12-12T02:13:52.837Z,33.75
2018-12-12T02:16:20.982Z,30.35
2018-12-12T02:18:49.124Z,36.20
2018-12-12T02:21:17.142Z,37.30
2018-12-12T02:23:45.174Z,29.98
2018-12-12T02:26:13.193Z,33.98
2018-12-12T02:28:41.222Z,36.58
2018-12-12T02:31:09.333Z,31.23
2018-12-12T02:33:37.378Z,32.40
2018-12-12T02:36:05.535Z,32.60
2018-12-12T02:38:33.566Z,34.40
2018-12-12T02:41:01.604Z,34.75
2018-12-12T02:43:29.628Z,32.90
2018-12-12T02:45:57.663Z,36.28
2018-12-12T02:48:25.686Z,40.00
2018-12-12T02:50:53.719Z,58.80
2018-12-12T02:53:21.782Z,43.33
2018-12-12T02:55:49.901Z,43.00
2018-12-12T02:58:17.945Z,38.38
2018-12-12T03:00:45.971Z,35.73
2018-12-12T03:03:13.989Z,37.05
2018-12-12T03:05:42.122Z,46.65
2018-12-12T03:08:10.244Z,41.30
2018-12-12T03:10:38.274Z,41.70
2018-12-12T03:13:06.308Z,35.68
2018-12-12T03:15:34.342Z,37.42
2018-12-12T03:18:02.361Z,39.92
2018-12-12T03:20:30.408Z,34.03
2018-12-12T03:22:58.425Z,32.90
2018-12-12T03:25:26.450Z,33.90
2018-12-12T03:27:54.490Z,38.40
2018-12-12T03:30:22.519Z,28.87
2018-12-12T03:32:50.613Z,39.03
2018-12-12T03:35:18.609Z,40.10
2018-12-12T03:37:46.629Z,31.33
2018-12-12T03:40:14.749Z,38.85
2018-12-12T03:42:42.867Z,44.58
2018-12-12T03:45:10.977Z,41.30
2018-12-12T03:47:38.989Z,43.98
2018-12-12T03:50:07.143Z,41.83
2018-12-12T03:52:35.180Z,51.18
2018-12-12T03:55:03.334Z,37.50
2018-12-12T03:57:31.367Z,33.78
2018-12-12T03:59:59.380Z,29.90
2018-12-12T04:02:27.398Z,31.12
2018-12-12T04:04:55.438Z,30.62
2018-12-12T04:07:23.485Z,34.85
2018-12-12T04:09:51.511Z,40.65
2018-12-12T04:12:19.534Z,31.42
2018-12-12T04:14:47.649Z,33.85
2018-12-12T04:17:15.772Z,31.23
2018-12-12T04:19:43.782Z,26.10
2018-12-12T04:22:11.949Z,28.55
2018-12-12T04:24:40.196Z,29.37
2018-12-12T04:27:08.228Z,31.57
2018-12-12T04:29:36.251Z,27.32
2018-12-12T04:32:04.259Z,25.82
2018-12-12T04:34:32.307Z,26.37
2018-12-12T04:37:00.435Z,23.87
2018-12-12T04:39:28.555Z,24.90
2018-12-12T04:41:56.577Z,24.98
2018-12-12T04:44:24.606Z,27.60
2018-12-12T04:46:52.713Z,30.50
2018-12-12T04:49:20.757Z,29.27
2018-12-12T04:51:48.779Z,26.15
2018-12-12T04:54:16.913Z,25.52
2018-12-12T04:56:44.926Z,25.43
2018-12-12T04:59:13.153Z,27.27
2018-12-12T05:01:41.168Z,24.70
2018-12-12T05:04:09.183Z,27.15
2018-12-12T05:06:37.201Z,28.00
2018-12-12T05:09:06.162Z,26.20
2018-12-12T05:11:34.213Z,30.80
2018-12-12T05:14:02.516Z,27.35
2018-12-12T05:16:30.673Z,23.62
2018-12-12T05:18:58.734Z,28.62
2018-12-12T05:21:26.783Z,26.30
2018-12-12T05:23:54.825Z,24.02
2018-12-12T05:26:22.833Z,26.73
2018-12-12T05:28:50.853Z,28.60
2018-12-12T05:31:18.873Z,26.85
2018-12-12T05:33:46.910Z,27.95
2018-12-12T05:36:14.956Z,25.72
2018-12-12T05:38:42.986Z,24.67
2018-12-12T05:41:11.029Z,26.77
2018-12-12T05:43:39.088Z,29.10
2018-12-12T05:46:07.161Z,25.62
2018-12-12T05:48:35.229Z,29.25
2018-12-12T05:51:03.252Z,28.25
2018-12-12T05:53:31.281Z,26.33
2018-12-12T05:56:02.419Z,25.95
2018-12-12T05:58:29.326Z,34.33
2018-12-12T06:00:57.349Z,35.60
2018-12-12T06:03:25.392Z,24.90
2018-12-12T06:05:53.493Z,31.20
2018-12-12T06:08:21.515Z,31.05
2018-12-12T06:10:49.554Z,25.50
2018-12-12T06:13:17.566Z,28.62
2018-12-12T06:15:45.682Z,25.00
2018-12-12T06:18:13.764Z,26.87
2018-12-12T06:20:41.798Z,24.70
2018-12-12T06:23:09.894Z,25.65
2018-12-12T06:25:38.079Z,25.60
2018-12-12T06:28:06.188Z,30.30
2018-12-12T06:30:34.204Z,26.70
2018-12-12T06:33:02.230Z,29.82
2018-12-12T06:35:30.368Z,26.25
2018-12-12T06:37:58.396Z,26.10
2018-12-12T06:40:26.436Z,29.15
2018-12-12T06:42:54.530Z,25.48
2018-12-12T06:45:22.648Z,29.70
2018-12-12T06:47:50.662Z,28.77
2018-12-12T06:50:18.704Z,28.07
2018-12-12T06:52:46.786Z,25.65
2018-12-12T06:55:14.834Z,25.62
2018-12-12T06:57:42.960Z,28.80
2018-12-12T07:00:10.977Z,30.57
2018-12-12T07:02:39.028Z,31.42
2018-12-12T07:05:07.217Z,27.00
2018-12-12T07:07:35.362Z,42.27
2018-12-12T07:10:03.505Z,30.08
2018-12-12T07:12:31.517Z,26.50
2018-12-12T07:14:59.671Z,37.17
2018-12-12T07:17:27.685Z,27.58
2018-12-12T07:19:56.642Z,28.38
2018-12-12T07:22:24.672Z,32.65
2018-12-12T07:24:52.708Z,35.28
2018-12-12T07:27:20.734Z,34.25
2018-12-12T07:29:48.741Z,39.85
2018-12-12T07:32:16.778Z,32.90
2018-12-12T07:34:44.798Z,35.70
2018-12-12T07:37:12.960Z,34.18
2018-12-12T07:39:40.980Z,28.17
2018-12-12T07:42:09.027Z,28.87
2018-12-12T07:44:37.060Z,27.87
2018-12-12T07:47:05.055Z,30.75
2018-12-12T07:49:33.286Z,32.15
2018-12-12T07:52:01.285Z,29.50
2018-12-12T07:54:29.330Z,28.05
2018-12-12T07:56:57.342Z,30.23
2018-12-12T07:59:25.374Z,27.05
2018-12-12T08:01:53.404Z,20.32
2018-12-12T08:04:21.432Z,24.25
2018-12-12T08:06:49.458Z,23.35
2018-12-12T08:09:17.480Z,25.50
2018-12-12T08:11:45.514Z,23.67
2018-12-12T08:14:13.518Z,20.80
2018-12-12T08:16:41.842Z,18.87
2018-12-12T08:19:09.850Z,19.40
2018-12-12T08:21:37.866Z,18.73
2018-12-12T08:24:05.902Z,19.10
2018-12-12T08:26:33.908Z,19.30
2018-12-12T08:29:02.058Z,20.27
2018-12-12T08:31:30.059Z,20.82
2018-12-12T08:33:58.092Z,20.15
2018-12-12T08:36:26.108Z,20.12
2018-12-12T08:38:54.135Z,19.87
2018-12-12T08:41:22.268Z,21.68
2018-12-12T08:43:50.286Z,20.60
2018-12-12T08:46:18.316Z,20.75
2018-12-12T08:48:46.346Z,20.43
2018-12-12T08:51:14.390Z,21.42
2018-12-12T08:53:42.400Z,20.17
2018-12-12T08:56:10.433Z,19.50
2018-12-12T08:58:38.458Z,20.25
2018-12-12T09:01:06.492Z,18.98
2018-12-12T09:03:34.551Z,20.23
2018-12-12T09:06:02.566Z,20.75
2018-12-12T09:08:30.586Z,19.73
2018-12-12T09:10:58.731Z,20.57
2018-12-12T09:13:26.759Z,19.85
2018-12-12T09:15:54.769Z,20.17
2018-12-12T09:18:22.807Z,21.62
2018-12-12T09:20:50.852Z,20.82
2018-12-12T09:23:18.870Z,21.12
2018-12-12T09:25:46.912Z,22.13
2018-12-12T09:28:15.008Z,21.15
2018-12-12T09:30:43.007Z,21.45
2018-12-12T09:33:11.040Z,21.73
2018-12-12T09:35:39.056Z,21.45
2018-12-12T09:38:07.093Z,21.95
2018-12-12T09:40:35.620Z,20.48
2018-12-12T09:43:03.778Z,21.30
2018-12-12T09:45:31.821Z,22.50
2018-12-12T09:47:59.948Z,22.73
2018-12-12T09:50:28.286Z,21.95
2018-12-12T09:52:56.419Z,23.92
2018-12-12T09:55:24.476Z,24.72
2018-12-12T09:57:52.470Z,25.95
2018-12-12T10:00:20.506Z,23.98
2018-12-12T10:02:48.512Z,24.45
2018-12-12T10:05:16.525Z,24.92
2018-12-12T10:07:44.536Z,25.62
2018-12-12T10:10:12.555Z,25.88
2018-12-12T10:12:40.602Z,24.37
2018-12-12T10:15:08.748Z,24.75
2018-12-12T10:17:36.781Z,23.47
2018-12-12T10:20:04.926Z,22.20
2018-12-12T10:22:32.978Z,24.35
2018-12-12T10:25:00.993Z,23.80
2018-12-12T10:27:29.056Z,24.72
2018-12-12T10:29:57.099Z,22.13
2018-12-12T10:32:25.114Z,22.67
2018-12-12T10:34:53.181Z,21.93
2018-12-12T10:37:21.246Z,23.70
2018-12-12T10:39:49.262Z,23.18
2018-12-12T10:42:17.313Z,22.48
2018-12-12T10:44:45.386Z,23.83
2018-12-12T10:47:13.457Z,24.75
2018-12-12T10:49:41.490Z,23.98
2018-12-12T10:52:09.518Z,23.05
2018-12-12T10:54:37.536Z,24.45
2018-12-12T10:57:05.564Z,24.92
2018-12-12T10:59:33.654Z,25.72
2018-12-12T11:02:07.080Z,26.48
2018-12-12T11:04:35.187Z,26.45
2018-12-12T11:07:03.324Z,27.32
2018-12-12T11:09:31.377Z,27.93
2018-12-12T11:11:59.418Z,27.62
2018-12-12T11:14:27.466Z,26.95
2018-12-12T11:16:55.538Z,25.97
2018-12-12T11:19:23.570Z,24.37
2018-12-12T11:21:51.610Z,25.30
2018-12-12T11:24:19.628Z,25.50
2018-12-12T11:26:47.654Z,24.57
2018-12-12T11:29:15.708Z,23.60
2018-12-12T11:31:43.743Z,23.50
2018-12-12T11:34:11.774Z,22.30
2018-12-12T11:36:39.818Z,22.48
2018-12-12T11:39:07.844Z,22.60
2018-12-12T11:41:35.870Z,21.17
2018-12-12T11:44:03.924Z,20.23
2018-12-12T11:46:32.055Z,19.57
2018-12-12T11:49:00.084Z,17.97
2018-12-12T11:51:28.109Z,17.90
2018-12-12T11:53:56.126Z,17.40
2018-12-12T11:56:24.174Z,16.23
2018-12-12T11:58:52.196Z,16.27
2018-12-12T12:01:20.240Z,15.87
2018-12-12T12:03:48.318Z,15.27
2018-12-12T12:06:16.350Z,13.67
2018-12-12T12:08:44.398Z,12.17
2018-12-12T12:11:12.434Z,10.60
2018-12-12T12:13:40.472Z,11.07
2018-12-12T12:16:08.516Z,10.63
2018-12-12T12:18:36.602Z,10.03
2018-12-12T12:21:04.672Z,10.33
2018-12-12T12:23:32.712Z,11.67
2018-12-12T12:26:00.746Z,12.40
2018-12-12T12:28:28.783Z,11.83
2018-12-12T12:30:56.816Z,9.47
2018-12-12T12:33:24.842Z,9.20
2018-12-12T12:35:52.905Z,7.20
2018-12-12T12:38:20.962Z,8.23
2018-12-12T12:40:49.104Z,8.37
2018-12-12T12:43:17.106Z,8.83
2018-12-12T12:45:45.208Z,9.07
2018-12-12T12:48:13.361Z,9.03
2018-12-12T12:50:41.394Z,9.10
2018-12-12T12:53:09.446Z,8.70
2018-12-12T12:55:37.492Z,8.53
2018-12-12T12:58:05.543Z,8.47
2018-12-12T13:00:33.590Z,9.00
2018-12-12T13:03:01.639Z,7.87
2018-12-12T13:05:29.672Z,8.83
2018-12-12T13:07:57.694Z,10.20
2018-12-12T13:10:26.101Z,9.07
2018-12-12T13:12:54.319Z,9.17
2018-12-12T13:15:22.543Z,8.27
2018-12-12T13:17:50.660Z,8.50
2018-12-12T13:20:18.689Z,7.93
2018-12-12T13:22:46.709Z,7.83
2018-12-12T13:25:14.800Z,7.63
2018-12-12T13:27:42.844Z,7.63
2018-12-12T13:30:10.986Z,7.67
2018-12-12T13:32:38.997Z,7.87
2018-12-12T13:35:07.324Z,6.67
2018-12-12T13:37:35.370Z,6.23
2018-12-12T13:40:03.606Z,6.07
2018-12-12T13:42:31.755Z,6.73
2018-12-12T13:44:59.814Z,6.13
2018-12-12T13:47:27.861Z,6.27
2018-12-12T13:49:55.892Z,6.50
2018-12-12T13:52:23.939Z,6.67
2018-12-12T13:54:52.055Z,6.20
2018-12-12T13:57:20.058Z,6.10
2018-12-12T13:59:48.095Z,6.27
2018-12-12T14:02:16.108Z,5.37
2018-12-12T14:04:44.158Z,19.10
2018-12-12T14:07:12.169Z,68.57
2018-12-12T14:09:40.238Z,6.43
2018-12-12T14:12:08.262Z,9.03
2018-12-12T14:14:36.294Z,10.97
2018-12-12T14:17:04.429Z,20.27
2018-12-12T14:19:32.468Z,22.20
2018-12-12T14:22:00.534Z,6.80
2018-12-12T14:24:28.558Z,6.60
2018-12-12T14:26:56.695Z,7.67
2018-12-12T14:29:24.748Z,7.23
2018-12-12T14:31:52.755Z,8.20
2018-12-12T14:34:20.816Z,7.87
2018-12-12T14:36:48.850Z,9.30
2018-12-12T14:39:16.882Z,9.70
2018-12-12T14:41:44.926Z,8.57
2018-12-12T14:44:12.942Z,8.83
2018-12-12T14:46:41.234Z,8.47
2018-12-12T14:49:09.269Z,9.40
2018-12-12T14:51:37.309Z,9.23
2018-12-12T14:54:05.326Z,9.83
2018-12-12T14:56:33.371Z,9.73
2018-12-12T14:59:01.435Z,9.77
2018-12-12T15:01:29.468Z,9.60
2018-12-12T15:03:57.498Z,11.00
2018-12-12T15:06:25.533Z,11.27
2018-12-12T15:08:53.557Z,10.17
2018-12-12T15:11:21.598Z,10.87
2018-12-12T15:13:49.629Z,10.87
2018-12-12T15:16:17.679Z,10.57
2018-12-12T15:18:45.722Z,10.83
2018-12-12T15:21:13.722Z,10.67
2018-12-12T15:23:41.751Z,10.27
2018-12-12T15:26:09.808Z,11.17
2018-12-12T15:28:37.878Z,10.80
2018-12-12T15:31:05.919Z,11.57
2018-12-12T15:33:33.946Z,11.90
2018-12-12T15:36:01.982Z,10.70
2018-12-12T15:38:29.997Z,10.50
2018-12-12T15:40:58.027Z,11.83
2018-12-12T15:43:26.089Z,10.67
2018-12-12T15:45:54.136Z,11.77
2018-12-12T15:48:22.236Z,11.73
2018-12-12T15:50:50.276Z,11.77
2018-12-12T15:53:18.310Z,11.10
2018-12-12T15:55:46.367Z,11.37
2018-12-12T15:58:14.429Z,11.70
2018-12-12T16:00:42.519Z,11.97
2018-12-12T16:03:10.752Z,11.27
2018-12-12T16:05:38.806Z,11.00
2018-12-12T16:08:06.846Z,10.97
2018-12-12T16:10:34.898Z,11.80
2018-12-12T16:13:02.994Z,11.20
2018-12-12T16:15:31.016Z,11.10
2018-12-12T16:17:59.116Z,10.80
2018-12-12T16:20:27.158Z,11.83
2018-12-12T16:22:55.208Z,10.80
2018-12-12T16:25:23.260Z,11.13
2018-12-12T16:27:52.269Z,10.73
2018-12-12T16:30:20.445Z,10.83
2018-12-12T16:32:48.494Z,10.97
2018-12-12T16:35:16.920Z,10.70
2018-12-12T16:37:44.959Z,10.88
2018-12-12T16:40:13.011Z,9.60
2018-12-12T16:42:41.068Z,9.80
2018-12-12T16:45:09.127Z,9.70
2018-12-12T16:47:37.177Z,9.90
2018-12-12T16:50:06.112Z,10.00
2018-12-12T16:52:34.195Z,10.83
2018-12-12T16:55:02.239Z,10.67
2018-12-12T16:57:30.290Z,10.80
2018-12-12T16:59:58.340Z,11.23
2018-12-12T17:02:26.385Z,10.77
2018-12-12T17:04:54.424Z,10.60
2018-12-12T17:07:22.492Z,10.83
2018-12-12T17:09:50.527Z,11.43
2018-12-12T17:12:18.592Z,11.03
2018-12-12T17:14:53.175Z,11.18
2018-12-12T17:17:21.237Z,9.75
2018-12-12T17:19:49.328Z,10.43
2018-12-12T17:22:17.404Z,10.38
2018-12-12T17:24:45.470Z,10.93
2018-12-12T17:27:13.540Z,10.98
2018-12-12T17:29:42.807Z,10.93
2018-12-12T17:32:10.887Z,10.70
2018-12-12T17:34:39.531Z,12.18
2018-12-12T17:37:07.599Z,12.05
2018-12-12T17:39:36.321Z,11.57
2018-12-12T17:42:04.599Z,12.20
2018-12-12T17:44:32.696Z,11.48
2018-12-12T17:47:01.358Z,11.55
2018-12-12T17:49:29.445Z,12.07
2018-12-12T17:51:57.580Z,11.68
2018-12-12T17:54:25.711Z,12.07
2018-12-12T17:56:53.865Z,11.90
2018-12-12T17:59:21.934Z,11.75
2018-12-12T18:01:50.011Z,12.03
2018-12-12T18:04:18.103Z,11.83
2018-12-12T18:06:46.171Z,12.60
2018-12-12T18:09:14.241Z,11.70
2018-12-12T18:11:42.325Z,13.08
2018-12-12T18:14:10.418Z,12.33
2018-12-12T18:16:39.115Z,12.47
2018-12-12T18:19:07.289Z,12.13
2018-12-12T18:21:35.388Z,13.00
2018-12-12T18:24:03.621Z,12.30
2018-12-12T18:26:31.721Z,12.68
2018-12-12T18:28:59.858Z,12.10
2018-12-12T18:31:27.973Z,11.90
2018-12-12T18:33:56.105Z,11.97
2018-12-12T18:36:24.241Z,12.05
2018-12-12T18:38:53.548Z,11.63
2018-12-12T18:41:22.116Z,10.65
2018-12-12T18:43:50.587Z,10.60
2018-12-12T18:46:18.734Z,10.25
2018-12-12T18:48:47.379Z,10.43
2018-12-12T18:51:15.494Z,9.58
2018-12-12T18:53:43.636Z,10.00
2018-12-12T18:56:11.829Z,8.98
2018-12-12T18:58:40.314Z,9.40
2018-12-12T19:01:08.503Z,8.75
2018-12-12T19:03:38.764Z,9.13
2018-12-12T19:06:07.184Z,9.20
2018-12-12T19:08:35.293Z,9.33
2018-12-12T19:11:03.571Z,8.90
2018-12-12T19:13:38.999Z,9.50
2018-12-12T19:16:07.919Z,9.20
2018-12-12T19:18:36.055Z,9.65
2018-12-12T19:21:04.362Z,9.48
2018-12-12T19:23:32.615Z,9.88
2018-12-12T19:26:01.098Z,9.78
2018-12-12T19:28:29.242Z,9.95
2018-12-12T19:30:57.379Z,9.03
2018-12-12T19:33:26.151Z,9.43
2018-12-12T19:35:54.315Z,9.80
2018-12-12T19:38:22.927Z,10.13
2018-12-12T19:40:51.084Z,10.50
2018-12-12T19:43:19.239Z,10.25
2018-12-12T19:45:48.552Z,9.53
2018-12-12T19:48:17.647Z,9.68
2018-12-12T19:50:47.883Z,9.75
2018-12-12T19:53:16.061Z,10.35
2018-12-12T19:55:45.545Z,10.00
2018-12-12T19:58:14.176Z,10.58
2018-12-12T20:00:42.346Z,10.70
2018-12-12T20:03:13.726Z,10.80
2018-12-12T20:05:42.527Z,10.63
2018-12-12T20:08:10.690Z,10.45
2018-12-12T20:10:38.955Z,10.08
2018-12-12T20:13:08.234Z,10.65
2018-12-12T20:15:41.872Z,11.15
2018-12-12T20:18:10.489Z,10.98
2018-12-12T20:20:38.990Z,9.85
2018-12-12T20:23:08.754Z,10.78
2018-12-12T20:25:37.301Z,10.25
2018-12-12T20:28:05.498Z,9.98
2018-12-12T20:30:35.699Z,10.30
2018-12-12T20:33:05.021Z,10.28
2018-12-12T20:35:34.360Z,10.20
2018-12-12T20:38:02.501Z,9.30
2018-12-12T20:40:31.278Z,9.83
2018-12-12T20:42:59.859Z,10.28
2018-12-12T20:45:28.377Z,9.73
2018-12-12T20:47:56.757Z,9.97
2018-12-12T20:50:25.690Z,9.80
2018-12-12T20:52:54.266Z,9.85
2018-12-12T20:55:22.760Z,9.73
2018-12-12T20:57:50.944Z,9.93
2018-12-12T21:00:20.372Z,9.50
2018-12-12T21:02:49.375Z,9.10
2018-12-12T21:05:18.740Z,9.45
2018-12-12T21:07:47.620Z,8.95
2018-12-12T21:10:15.767Z,9.75
2018-12-12T21:12:43.893Z,9.13
2018-12-12T21:15:12.330Z,9.50
2018-12-12T21:17:40.483Z,22.75
2018-12-12T21:20:09.287Z,14.38
2018-12-12T21:22:37.427Z,13.32
2018-12-12T21:25:08.301Z,9.60
2018-12-12T21:27:36.434Z,9.05
2018-12-12T21:30:04.715Z,9.00
2018-12-12T21:32:32.960Z,9.53
2018-12-12T21:35:01.087Z,9.43
2018-12-12T21:37:30.075Z,10.43
2018-12-12T21:39:58.193Z,9.50
2018-12-12T21:42:26.933Z,10.00
2018-12-12T21:44:55.053Z,9.10
2018-12-12T21:47:23.277Z,10.10
2018-12-12T21:49:51.369Z,9.50
2018-12-12T21:52:19.577Z,9.50
2018-12-12T21:54:47.713Z,9.68
2018-12-12T21:57:15.901Z,9.55
2018-12-12T21:59:43.987Z,8.98
2018-12-12T22:02:12.458Z,9.28
2018-12-12T22:04:40.601Z,9.43
2018-12-12T22:07:08.789Z,9.30
2018-12-12T22:09:36.901Z,9.48
2018-12-12T22:12:04.993Z,9.00
2018-12-12T22:14:33.084Z,9.13
2018-12-12T22:17:01.293Z,9.83
2018-12-12T22:19:29.388Z,9.05
2018-12-12T22:21:57.501Z,8.70
2018-12-12T22:24:25.546Z,9.30
2018-12-12T22:26:53.645Z,9.08
2018-12-12T22:29:22.562Z,9.03
2018-12-12T22:31:50.651Z,9.15
2018-12-12T22:34:18.768Z,9.13
2018-12-12T22:36:46.836Z,9.35
2018-12-12T22:39:14.885Z,9.33
2018-12-12T22:41:42.909Z,8.98
2018-12-12T22:44:10.977Z,8.20
2018-12-12T22:46:39.031Z,8.63
2018-12-12T22:49:07.076Z,8.15
2018-12-12T22:51:35.184Z,8.60
2018-12-12T22:54:03.211Z,7.87
2018-12-12T22:56:31.255Z,8.68
2018-12-12T22:58:59.315Z,8.45
2018-12-12T23:01:27.392Z,9.05
2018-12-12T23:03:55.428Z,7.55
2018-12-12T23:06:23.461Z,7.83
2018-12-12T23:08:51.620Z,8.25
2018-12-12T23:11:19.679Z,7.75
2018-12-12T23:13:47.900Z,8.25
2018-12-12T23:16:16.005Z,7.42
2018-12-12T23:18:44.146Z,7.05
2018-12-12T23:21:12.230Z,7.75
2018-12-12T23:23:40.273Z,7.83
2018-12-12T23:26:08.363Z,6.80
2018-12-12T23:28:36.432Z,7.55
2018-12-12T23:31:04.456Z,7.92
2018-12-12T23:33:32.491Z,7.65
2018-12-12T23:36:00.520Z,7.30
2018-12-12T23:38:28.599Z,7.00
2018-12-12T23:40:56.622Z,7.47
2018-12-12T23:43:24.732Z,7.72
2018-12-12T23:45:52.746Z,7.20
2018-12-12T23:48:20.758Z,6.87
2018-12-12T23:50:48.766Z,6.80
2018-12-12T23:53:16.818Z,6.80
2018-12-12T23:55:44.828Z,6.92
2018-12-12T23:58:12.844Z,6.90
